Time;durP1;ratioP1;P1;durP2;ratioP2;P2;SDS_P1;SDS_P2;PMS_P1;PMS_P2;Temp;Humidity;BMP_temperature;BMP_pressure;BME280_temperature;BME280_humidity;BME280_pressure;Samples;Min_cycle;Max_cycle;Signal;HPM_P1;HPM_P2
2022/02/19 00:00:06;;;;;;;11.48;1.25;;;;;;;-141.50;100.00;63355.56;4910611;29;20048;-76
2022/02/19 00:02:32;;;;;;;7.13;1.30;;;;;;;-141.50;100.00;63355.56;4910521;29;20294;-78
2022/02/19 00:04:59;;;;;;;8.00;1.23;;;;;;;-141.50;100.00;63355.56;4911169;29;20528;-77
2022/02/19 00:07:26;;;;;;;7.82;0.90;;;;;;;-141.50;100.00;63355.56;4909215;29;20131;-78
2022/02/19 00:09:57;;;;;;;4.35;0.70;;;;;;;-141.50;100.00;63355.56;4909574;29;20169;-78
2022/02/19 00:12:25;;;;;;;4.68;0.85;;;;;;;-141.50;100.00;63355.56;4909975;29;20059;-77
2022/02/19 00:14:52;;;;;;;5.47;0.98;;;;;;;-141.50;100.00;63355.56;4910067;29;20036;-78
2022/02/19 00:17:22;;;;;;;7.10;1.10;;;;;;;-141.50;100.00;63355.56;4910355;29;20104;-77
2022/02/19 00:19:50;;;;;;;5.13;1.08;;;;;;;-141.50;100.00;63355.56;4910476;29;20111;-78
2022/02/19 00:22:17;;;;;;;10.77;1.08;;;;;;;-141.50;100.00;63355.56;4908295;29;20140;-77
2022/02/19 00:24:43;;;;;;;9.48;1.20;;;;;;;-141.50;100.00;63355.56;4911513;29;20141;-79
2022/02/19 00:27:11;;;;;;;6.93;1.10;;;;;;;-141.50;100.00;63355.56;4910240;29;20485;-77
2022/02/19 00:29:37;;;;;;;5.80;1.20;;;;;;;-141.50;100.00;63355.56;4909865;29;20501;-78
2022/02/19 00:32:06;;;;;;;11.93;1.40;;;;;;;-141.50;100.00;63355.56;4911010;29;20208;-78
2022/02/19 00:34:32;;;;;;;5.13;1.10;;;;;;;-141.50;100.00;63355.56;4908966;29;20474;-76
2022/02/19 00:37:00;;;;;;;6.25;1.17;;;;;;;-141.50;100.00;63355.56;4912844;29;20052;-76
2022/02/19 00:39:27;;;;;;;8.48;1.10;;;;;;;-141.50;100.00;63355.56;4910273;29;20134;-77
2022/02/19 00:41:54;;;;;;;6.80;0.88;;;;;;;-141.50;100.00;63355.56;4909539;29;20056;-79
2022/02/19 00:44:20;;;;;;;9.50;1.60;;;;;;;-141.50;100.00;63355.56;4909990;29;20048;-76
2022/02/19 00:46:47;;;;;;;7.75;1.33;;;;;;;-141.50;100.00;63355.56;4910249;29;20048;-77
2022/02/19 00:49:14;;;;;;;4.47;1.00;;;;;;;-141.50;100.00;63355.56;4910934;29;20888;-76
2022/02/19 00:51:41;;;;;;;4.75;1.20;;;;;;;-141.50;100.00;63355.56;4908232;29;20789;-78
2022/02/19 00:54:10;;;;;;;10.70;1.38;;;;;;;-141.50;100.00;63355.56;4913279;29;20171;-78
2022/02/19 00:56:36;;;;;;;6.60;1.30;;;;;;;-141.50;100.00;63355.56;4919511;29;20044;-78
2022/02/19 00:59:03;;;;;;;7.97;1.60;;;;;;;-141.50;100.00;63355.56;4933520;29;20052;-76
2022/02/19 01:01:30;;;;;;;8.38;1.13;;;;;;;-141.50;100.00;63355.56;4934773;29;20059;-77
2022/02/19 01:03:56;;;;;;;8.35;1.25;;;;;;;-141.50;100.00;63355.56;4916526;29;20116;-78
2022/02/19 01:06:23;;;;;;;6.45;1.20;;;;;;;-141.50;100.00;63355.56;4912654;29;20052;-78
2022/02/19 01:08:50;;;;;;;14.55;1.63;;;;;;;-141.50;100.00;63355.56;4914633;29;20142;-77
2022/02/19 01:11:18;;;;;;;9.48;1.30;;;;;;;-141.50;100.00;63355.56;4912956;29;20132;-78
2022/02/19 01:13:46;;;;;;;10.32;1.15;;;;;;;-141.50;100.00;63355.56;4912974;29;20135;-76
2022/02/19 01:16:13;;;;;;;14.48;1.50;;;;;;;-141.50;100.00;63355.56;4914504;29;20150;-78
2022/02/19 01:18:39;;;;;;;9.32;1.80;;;;;;;-141.50;100.00;63355.56;4914556;29;20469;-79
2022/02/19 01:21:06;;;;;;;11.77;1.38;;;;;;;-141.50;100.00;63355.56;4912956;29;20475;-77
2022/02/19 01:23:33;;;;;;;10.82;1.67;;;;;;;-141.50;100.00;63355.56;4913849;29;20466;-79
2022/02/19 01:25:59;;;;;;;14.82;1.52;;;;;;;-141.50;100.00;63355.56;4913398;29;20458;-77
2022/02/19 01:28:27;;;;;;;10.48;1.77;;;;;;;-141.50;100.00;63355.56;4912495;29;20060;-78
2022/02/19 01:30:53;;;;;;;5.97;1.35;;;;;;;-141.50;100.00;63355.56;4912170;29;20402;-77
2022/02/19 01:33:20;;;;;;;8.00;1.25;;;;;;;-141.50;100.00;63355.56;4914175;29;20135;-78
2022/02/19 01:35:47;;;;;;;8.73;1.48;;;;;;;-141.50;100.00;63355.56;4912111;29;20048;-77
2022/02/19 01:38:13;;;;;;;7.82;1.30;;;;;;;-141.50;100.00;63355.56;4912916;29;20086;-78
2022/02/19 01:40:40;;;;;;;7.40;1.23;;;;;;;-141.50;100.00;63355.56;4910498;29;20044;-78
2022/02/19 01:43:10;;;;;;;9.63;1.73;;;;;;;-141.50;100.00;63355.56;4912536;29;20155;-77
2022/02/19 01:45:38;;;;;;;12.32;1.50;;;;;;;-141.50;100.00;63355.56;4912574;29;20087;-78
2022/02/19 01:48:05;;;;;;;12.70;1.83;;;;;;;-141.50;100.00;63355.56;4912028;29;20123;-78
2022/02/19 01:50:31;;;;;;;8.45;1.60;;;;;;;-141.50;100.00;63355.56;4912187;29;20079;-77
2022/02/19 01:52:59;;;;;;;9.80;1.52;;;;;;;-141.50;100.00;63355.56;4911750;29;20107;-79
2022/02/19 01:55:26;;;;;;;11.30;1.48;;;;;;;-141.50;100.00;63355.56;4912569;29;20100;-77
2022/02/19 01:57:52;;;;;;;10.90;1.88;;;;;;;-141.50;100.00;63355.56;4913251;29;20083;-78
2022/02/19 02:00:19;;;;;;;9.65;1.80;;;;;;;-141.50;100.00;63355.56;4912596;29;20055;-78
2022/02/19 02:02:45;;;;;;;13.32;1.80;;;;;;;-141.50;100.00;63355.56;4914774;29;20056;-77
2022/02/19 02:05:12;;;;;;;12.43;2.17;;;;;;;-141.50;100.00;63355.56;4912057;29;20059;-78
2022/02/19 02:07:38;;;;;;;10.75;1.63;;;;;;;-141.50;100.00;63355.56;4912557;29;20052;-78
2022/02/19 02:10:05;;;;;;;16.40;2.33;;;;;;;-141.50;100.00;63355.56;4912840;29;20048;-77
2022/02/19 02:12:34;;;;;;;13.10;1.40;;;;;;;-141.50;100.00;63355.56;4912010;29;20056;-76
2022/02/19 02:15:00;;;;;;;12.75;1.88;;;;;;;-141.50;100.00;63355.56;4911536;29;20040;-76
2022/02/19 02:17:27;;;;;;;10.32;1.48;;;;;;;-141.50;100.00;63355.56;4913040;29;20048;-76
2022/02/19 02:19:53;;;;;;;10.75;1.60;;;;;;;-141.50;100.00;63355.56;4910515;29;20055;-77
2022/02/19 02:22:20;;;;;;;11.88;1.83;;;;;;;-141.50;100.00;63355.56;4911189;29;20103;-77
2022/02/19 02:24:49;;;;;;;13.63;1.75;;;;;;;-141.50;100.00;63355.56;4912937;29;20139;-77
2022/02/19 02:27:17;;;;;;;9.02;1.70;;;;;;;-141.50;100.00;63355.56;4911921;29;20047;-77
2022/02/19 02:29:47;;;;;;;13.63;1.73;;;;;;;-141.50;100.00;63355.56;4911896;29;20202;-74
2022/02/19 02:32:14;;;;;;;11.75;1.70;;;;;;;-141.50;100.00;63355.56;4912834;29;20103;-77
2022/02/19 02:34:51;;;;;;;15.52;1.52;;;;;;;-141.50;100.00;63355.56;4912959;29;20703;-76
2022/02/19 02:37:18;;;;;;;10.43;1.70;;;;;;;-141.50;100.00;63355.56;4912044;29;20099;-76
2022/02/19 02:39:46;;;;;;;13.07;1.48;;;;;;;-141.50;100.00;63355.56;4912703;29;20047;-75
2022/02/19 02:42:16;;;;;;;8.63;1.85;;;;;;;-141.50;100.00;63355.56;4911727;29;20074;-76
2022/02/19 02:44:43;;;;;;;17.13;2.45;;;;;;;-141.50;100.00;63355.56;4912417;29;20059;-77
2022/02/19 02:47:14;;;;;;;11.90;1.80;;;;;;;-141.50;100.00;63355.56;4912713;29;20493;-77
2022/02/19 02:49:40;;;;;;;11.30;1.80;;;;;;;-141.50;100.00;63355.56;4911648;29;20481;-77
2022/02/19 02:52:09;;;;;;;12.00;1.80;;;;;;;-141.50;100.00;63355.56;4910636;29;20052;-77
2022/02/19 02:54:36;;;;;;;11.82;1.75;;;;;;;-141.50;100.00;63355.56;4911309;29;20128;-77
2022/02/19 02:57:04;;;;;;;8.00;1.38;;;;;;;-141.50;100.00;63355.56;4912423;29;20040;-77
2022/02/19 02:59:30;;;;;;;11.88;1.70;;;;;;;-141.50;100.00;63355.56;4910935;29;20079;-78
2022/02/19 03:01:57;;;;;;;6.15;1.02;;;;;;;-141.50;100.00;63355.56;4912504;29;20174;-77
2022/02/19 03:04:23;;;;;;;10.18;1.50;;;;;;;-141.50;100.00;63355.56;4912233;29;20111;-75
2022/02/19 03:06:50;;;;;;;8.07;1.35;;;;;;;-141.50;100.00;63355.56;4911008;29;20047;-78
2022/02/19 03:09:17;;;;;;;6.78;1.73;;;;;;;-141.50;100.00;63355.56;4911593;29;20076;-78
2022/02/19 03:11:43;;;;;;;7.78;1.10;;;;;;;-141.50;100.00;63355.56;4911344;29;20079;-77
2022/02/19 03:14:10;;;;;;;11.27;1.73;;;;;;;-141.50;100.00;63355.56;4911237;29;20044;-78
2022/02/19 03:16:37;;;;;;;6.18;1.48;;;;;;;-141.50;100.00;63355.56;4910539;29;20036;-77
2022/02/19 03:19:05;;;;;;;10.52;2.30;;;;;;;-141.50;100.00;63355.56;4911630;29;20053;-76
2022/02/19 03:21:31;;;;;;;11.15;1.63;;;;;;;-141.50;100.00;63355.56;4909495;29;20552;-76
2022/02/19 03:23:58;;;;;;;14.98;1.48;;;;;;;-141.50;100.00;63355.56;4911237;29;20127;-77
2022/02/19 03:26:25;;;;;;;10.73;1.17;;;;;;;-141.50;100.00;63355.56;4911624;29;20048;-77
2022/02/19 03:28:51;;;;;;;9.90;1.02;;;;;;;-141.50;100.00;63355.56;4914923;29;20715;-76
2022/02/19 03:31:18;;;;;;;13.30;1.30;;;;;;;-141.50;100.00;63355.56;4915695;29;20052;-75
2022/02/19 03:33:44;;;;;;;11.32;1.30;;;;;;;-141.50;100.00;63355.56;4915436;29;20056;-77
2022/02/19 03:36:11;;;;;;;8.60;1.60;;;;;;;-141.50;100.00;63355.56;4915273;29;20480;-77
2022/02/19 03:38:37;;;;;;;9.50;1.20;;;;;;;-141.50;100.00;63355.56;4914896;29;20408;-79
2022/02/19 03:41:04;;;;;;;7.85;1.40;;;;;;;-141.50;100.00;63355.56;4916885;29;20080;-76
2022/02/19 03:43:30;;;;;;;12.13;1.73;;;;;;;-141.50;100.00;63355.56;4913750;29;20052;-77
2022/02/19 03:45:57;;;;;;;10.25;2.30;;;;;;;-141.50;100.00;63355.56;4915881;29;20048;-78
2022/02/19 03:48:23;;;;;;;6.78;1.20;;;;;;;-141.50;100.00;63355.56;4916403;29;20122;-78
2022/02/19 03:50:50;;;;;;;10.20;1.77;;;;;;;-141.50;100.00;63355.56;4912734;29;20091;-77
2022/02/19 03:53:16;;;;;;;10.27;1.48;;;;;;;-141.50;100.00;63355.56;4914921;29;20051;-76
2022/02/19 03:55:43;;;;;;;8.20;1.65;;;;;;;-141.50;100.00;63355.56;4915121;29;20404;-76
2022/02/19 03:58:10;;;;;;;11.32;1.23;;;;;;;-141.50;100.00;63355.56;4914723;29;20488;-77
2022/02/19 04:00:36;;;;;;;6.28;1.30;;;;;;;-141.50;100.00;63355.56;4914230;29;20123;-76
2022/02/19 04:03:03;;;;;;;12.20;1.45;;;;;;;-141.50;100.00;63355.56;4913672;29;20056;-77
2022/02/19 04:05:30;;;;;;;7.50;1.30;;;;;;;-141.50;100.00;63355.56;4911110;29;20124;-77
2022/02/19 04:07:57;;;;;;;8.70;1.60;;;;;;;-141.50;100.00;63355.56;4914366;29;20629;-77
2022/02/19 04:10:23;;;;;;;10.75;1.40;;;;;;;-141.50;100.00;63355.56;4914025;29;20104;-77
2022/02/19 04:12:50;;;;;;;8.55;1.50;;;;;;;-141.50;100.00;63355.56;4914557;29;20552;-75
2022/02/19 04:15:19;;;;;;;11.70;1.40;;;;;;;-141.50;100.00;63355.56;4916517;29;20143;-76
2022/02/19 04:17:46;;;;;;;8.90;1.55;;;;;;;-141.50;100.00;63355.56;4934402;29;20051;-75
2022/02/19 04:20:12;;;;;;;9.65;1.45;;;;;;;-141.50;100.00;63355.56;4933391;29;20142;-76
2022/02/19 04:22:41;;;;;;;8.00;1.30;;;;;;;-141.50;100.00;63355.56;4931167;29;20079;-77
2022/02/19 04:25:11;;;;;;;8.07;1.23;;;;;;;-141.50;100.00;63355.56;4934004;29;20628;-77
2022/02/19 04:27:38;;;;;;;10.95;1.52;;;;;;;-141.50;100.00;63355.56;4933227;29;20048;-76
2022/02/19 04:30:05;;;;;;;10.43;1.45;;;;;;;-141.50;100.00;63355.56;4933189;29;20094;-76
2022/02/19 04:32:32;;;;;;;9.65;1.50;;;;;;;-141.50;100.00;63355.56;4935088;29;20142;-77
2022/02/19 04:34:58;;;;;;;8.30;1.15;;;;;;;-141.50;100.00;63355.56;4945152;29;20107;-78
2022/02/19 04:37:25;;;;;;;11.57;1.52;;;;;;;-141.50;100.00;63355.56;4950684;29;20078;-77
2022/02/19 04:39:52;;;;;;;9.98;1.55;;;;;;;-141.50;100.00;63355.56;4950641;29;20052;-76
2022/02/19 04:42:18;;;;;;;12.90;1.20;;;;;;;-141.50;100.00;63355.56;4939362;29;20048;-77
2022/02/19 04:44:45;;;;;;;8.20;1.25;;;;;;;-141.50;100.00;63355.56;4933556;29;20090;-77
2022/02/19 04:47:12;;;;;;;6.82;1.05;;;;;;;-141.50;100.00;63355.56;4934919;29;20078;-76
2022/02/19 04:49:38;;;;;;;5.55;1.30;;;;;;;-141.50;100.00;63355.56;4933745;29;20103;-75
2022/02/19 04:52:05;;;;;;;9.60;1.30;;;;;;;-141.50;100.00;63355.56;4932194;29;20060;-77
2022/02/19 04:54:31;;;;;;;7.43;1.25;;;;;;;-141.50;100.00;63355.56;4934490;29;20126;-76
2022/02/19 04:56:58;;;;;;;7.40;1.27;;;;;;;-141.50;100.00;63355.56;4934630;29;20044;-77
2022/02/19 04:59:24;;;;;;;7.30;0.90;;;;;;;-141.50;100.00;63355.56;4932575;29;20047;-77
2022/02/19 05:01:51;;;;;;;11.40;1.38;;;;;;;-141.50;100.00;63355.56;4932348;29;20052;-77
2022/02/19 05:04:19;;;;;;;7.00;1.08;;;;;;;-141.50;100.00;63355.56;4931656;29;20102;-77
2022/02/19 05:06:47;;;;;;;7.22;1.10;;;;;;;-141.50;100.00;63355.56;4928327;29;20043;-77
2022/02/19 05:09:13;;;;;;;7.20;1.08;;;;;;;-141.50;100.00;63355.56;4931267;29;20047;-77
2022/02/19 05:11:40;;;;;;;8.60;1.02;;;;;;;-141.50;100.00;63355.56;4931994;29;20055;-77
2022/02/19 05:14:07;;;;;;;7.38;0.80;;;;;;;-141.50;100.00;63355.56;4930588;29;20134;-77
2022/02/19 05:16:33;;;;;;;7.38;1.02;;;;;;;-141.50;100.00;63355.56;4932748;29;20048;-77
2022/02/19 05:19:00;;;;;;;6.93;1.02;;;;;;;-141.50;100.00;63355.56;4933404;29;20129;-77
2022/02/19 05:21:27;;;;;;;10.02;1.23;;;;;;;-141.50;100.00;63355.56;4931713;29;20075;-77
2022/02/19 05:23:53;;;;;;;10.48;1.65;;;;;;;-141.50;100.00;63355.56;4934068;29;20047;-77
2022/02/19 05:26:20;;;;;;;8.60;1.10;;;;;;;-141.50;100.00;63355.56;4935615;29;20107;-75
2022/02/19 05:28:46;;;;;;;7.30;1.17;;;;;;;-141.50;100.00;63355.56;4933780;29;20063;-78
2022/02/19 05:31:13;;;;;;;5.00;0.90;;;;;;;-141.50;100.00;63355.56;4934778;29;20058;-76
2022/02/19 05:33:40;;;;;;;5.88;1.30;;;;;;;-141.50;100.00;63355.56;4933479;29;20082;-77
2022/02/19 05:36:07;;;;;;;10.02;1.10;;;;;;;-141.50;100.00;63355.56;4933929;29;20548;-77
2022/02/19 05:38:33;;;;;;;6.57;1.00;;;;;;;-141.50;100.00;63355.56;4934169;29;20043;-77
2022/02/19 05:41:00;;;;;;;6.28;1.13;;;;;;;-141.50;100.00;63355.56;4933024;29;20055;-77
2022/02/19 05:43:26;;;;;;;7.32;1.27;;;;;;;-141.50;100.00;63355.56;4932642;29;20198;-77
2022/02/19 05:45:53;;;;;;;4.40;0.80;;;;;;;-141.50;100.00;63355.56;4931416;29;20047;-77
2022/02/19 05:48:19;;;;;;;8.48;0.98;;;;;;;-141.50;100.00;63355.56;4931955;29;20048;-77
2022/02/19 05:50:46;;;;;;;7.80;1.23;;;;;;;-141.50;100.00;63355.56;4929360;29;20051;-75
2022/02/19 05:53:13;;;;;;;6.72;1.65;;;;;;;-141.50;100.00;63355.56;4930264;29;20092;-78
2022/02/19 05:55:41;;;;;;;10.52;0.95;;;;;;;-141.50;100.00;63355.56;4932291;29;20083;-78
2022/02/19 05:58:08;;;;;;;9.02;1.08;;;;;;;-141.50;100.00;63355.56;4924237;29;20511;-78
2022/02/19 06:00:35;;;;;;;8.95;1.08;;;;;;;-141.50;100.00;63355.56;4908641;29;20060;-77
2022/02/19 06:03:01;;;;;;;4.07;0.60;;;;;;;-141.50;100.00;63355.56;4914159;29;20056;-77
2022/02/19 06:05:28;;;;;;;6.22;0.77;;;;;;;-141.50;100.00;63355.56;4911458;29;20147;-77
2022/02/19 06:07:55;;;;;;;10.98;0.90;;;;;;;-141.50;100.00;63355.56;4912128;29;20047;-76
2022/02/19 06:10:22;;;;;;;3.40;0.70;;;;;;;-141.50;100.00;63355.56;4913569;29;20052;-76
2022/02/19 06:12:49;;;;;;;5.43;0.82;;;;;;;-141.50;100.00;63355.56;4913368;29;20060;-76
2022/02/19 06:15:15;;;;;;;9.80;1.38;;;;;;;-141.50;100.00;63355.56;4910454;29;20067;-77
2022/02/19 06:17:42;;;;;;;4.55;0.80;;;;;;;-141.50;100.00;63355.56;4916521;29;20052;-76
2022/02/19 06:20:09;;;;;;;3.28;0.70;;;;;;;-141.50;100.00;63355.56;4914483;29;20063;-76
2022/02/19 06:22:36;;;;;;;5.85;1.17;;;;;;;-141.50;100.00;63355.56;4910130;29;20056;-77
2022/02/19 06:25:03;;;;;;;8.25;0.73;;;;;;;-141.50;100.00;63355.56;4912575;29;20066;-76
2022/02/19 06:27:30;;;;;;;7.80;1.15;;;;;;;-141.50;100.00;63355.56;4922742;29;20067;-76
2022/02/19 06:29:58;;;;;;;6.82;0.82;;;;;;;-141.50;100.00;63355.56;4930137;29;20517;-76
2022/02/19 06:32:25;;;;;;;8.63;0.82;;;;;;;-141.50;100.00;63355.56;4932255;29;20048;-77
2022/02/19 06:34:51;;;;;;;7.00;1.08;;;;;;;-141.50;100.00;63355.56;4929867;29;20044;-77
2022/02/19 06:37:18;;;;;;;10.20;1.20;;;;;;;-141.50;100.00;63355.56;4924644;29;20066;-76
2022/02/19 06:39:46;;;;;;;5.38;0.98;;;;;;;-141.50;100.00;63355.56;4911573;29;20060;-77
2022/02/19 06:42:13;;;;;;;5.78;0.77;;;;;;;-141.50;100.00;63355.56;4910953;29;20448;-77
2022/02/19 06:44:43;;;;;;;8.25;1.20;;;;;;;-141.50;100.00;63355.56;4907570;29;20053;-77
2022/02/19 06:47:11;;;;;;;6.85;1.02;;;;;;;-141.50;100.00;63355.56;4912401;29;20378;-76
2022/02/19 06:49:40;;;;;;;10.43;1.20;;;;;;;-141.50;100.00;63355.56;4899667;29;20064;-76
2022/02/19 06:52:10;;;;;;;12.98;1.33;;;;;;;-141.50;100.00;63355.56;4905915;29;20056;-75
2022/02/19 06:54:45;;;;;;;6.25;0.82;;;;;;;-141.50;100.00;63355.56;4907483;29;20067;-76
2022/02/19 06:57:14;;;;;;;8.10;1.33;;;;;;;-141.50;100.00;63355.56;4909018;29;20498;-76
2022/02/19 06:59:42;;;;;;;5.25;0.75;;;;;;;-141.50;100.00;63355.56;4908444;29;20048;-77
2022/02/19 07:02:11;;;;;;;9.93;1.30;;;;;;;-141.50;100.00;63355.56;4910403;29;20147;-77
2022/02/19 07:04:38;;;;;;;9.77;1.10;;;;;;;-141.50;100.00;63355.56;4913586;29;20056;-76
2022/02/19 07:07:04;;;;;;;8.02;1.15;;;;;;;-141.50;100.00;63355.56;4914260;29;20051;-77
2022/02/19 07:09:31;;;;;;;7.38;1.20;;;;;;;-141.50;100.00;63355.56;4913452;29;20080;-77
2022/02/19 07:12:00;;;;;;;5.10;1.00;;;;;;;-141.50;100.00;63355.56;4912986;29;20052;-78
2022/02/19 07:14:29;;;;;;;7.25;1.15;;;;;;;-141.50;100.00;63355.56;4912552;29;20513;-77
2022/02/19 07:17:04;;;;;;;8.27;1.10;;;;;;;-141.50;100.00;63355.56;4914555;29;20569;-77
2022/02/19 07:19:32;;;;;;;5.30;1.13;;;;;;;-141.50;100.00;63355.56;4913038;29;20555;-76
2022/02/19 07:21:59;;;;;;;9.32;1.20;;;;;;;-141.50;100.00;63355.56;4889705;29;20052;-76
2022/02/19 07:24:26;;;;;;;6.68;1.00;;;;;;;-141.50;100.00;63355.56;4892730;29;20043;-75
2022/02/19 07:26:54;;;;;;;9.93;1.13;;;;;;;-141.50;100.00;63355.56;4911134;29;20075;-78
2022/02/19 07:29:20;;;;;;;8.80;1.48;;;;;;;-141.50;100.00;63355.56;4911704;29;20055;-76
2022/02/19 07:31:47;;;;;;;7.65;1.33;;;;;;;-141.50;100.00;63355.56;4911537;29;20060;-77
2022/02/19 07:34:14;;;;;;;5.90;0.75;;;;;;;-141.50;100.00;63355.56;4912324;29;20072;-77
2022/02/19 07:36:41;;;;;;;5.03;0.90;;;;;;;-141.50;100.00;63355.56;4912983;29;20052;-78
2022/02/19 07:39:11;;;;;;;8.05;1.27;;;;;;;-141.50;100.00;63355.56;4914579;29;20052;-79
2022/02/19 07:41:38;;;;;;;5.68;0.98;;;;;;;-141.50;100.00;63355.56;4910852;29;20067;-77
2022/02/19 07:44:05;;;;;;;12.85;1.60;;;;;;;-141.50;100.00;63355.56;4910130;29;20056;-79
2022/02/19 07:46:32;;;;;;;5.63;1.20;;;;;;;-141.50;100.00;63355.56;4912847;29;20538;-78
2022/02/19 07:58:17;;;;;;;8.20;1.17;;;;;;;-141.50;100.00;63355.56;4913515;29;20088;-78
2022/02/19 08:00:04;;;;;;;5.60;1.08;;;;;;;-141.50;100.00;63355.56;4910650;29;19930;-77
2022/02/19 08:02:31;;;;;;;4.78;0.63;;;;;;;-141.50;100.00;63355.56;4910606;29;20058;-77
2022/02/19 08:04:57;;;;;;;5.00;1.00;;;;;;;-141.50;100.00;63355.56;4910287;29;20159;-77
2022/02/19 08:07:24;;;;;;;3.25;0.77;;;;;;;-141.50;100.00;63355.56;4908081;29;20060;-77
2022/02/19 08:09:50;;;;;;;3.10;0.70;;;;;;;-141.50;100.00;63355.56;4908757;29;20406;-77
2022/02/19 08:12:17;;;;;;;9.95;1.30;;;;;;;-141.50;100.00;63355.56;4910062;29;20068;-76
2022/02/19 08:14:47;;;;;;;9.60;1.00;;;;;;;-141.50;100.00;63355.56;4922047;29;20062;-78
2022/02/19 08:17:14;;;;;;;5.18;0.88;;;;;;;-141.50;100.00;63355.56;4925987;29;20210;-77
2022/02/19 08:19:41;;;;;;;3.08;0.80;;;;;;;-141.50;100.00;63355.56;4922742;29;20063;-76
2022/02/19 08:22:07;;;;;;;6.63;0.70;;;;;;;-141.50;100.00;63355.56;4907267;29;20060;-78
2022/02/19 08:24:34;;;;;;;9.32;0.85;;;;;;;-141.50;100.00;63355.56;4911240;29;20052;-77
2022/02/19 08:27:00;;;;;;;3.42;0.82;;;;;;;-141.50;100.00;63355.56;4909127;29;20044;-76
2022/02/19 08:29:27;;;;;;;7.03;0.98;;;;;;;-141.50;100.00;63355.56;4908457;29;20103;-75
2022/02/19 08:31:53;;;;;;;4.97;1.17;;;;;;;-141.50;100.00;63355.56;4909413;29;20107;-76
2022/02/19 08:34:20;;;;;;;6.07;1.13;;;;;;;-141.50;100.00;63355.56;4908476;29;20095;-77
2022/02/19 08:36:47;;;;;;;7.80;0.80;;;;;;;-141.50;100.00;63355.56;4910410;29;20580;-78
2022/02/19 08:39:13;;;;;;;9.43;1.33;;;;;;;-141.50;100.00;63355.56;4910412;29;20057;-77
2022/02/19 08:41:40;;;;;;;7.63;0.70;;;;;;;-141.50;100.00;63355.56;4908269;29;20486;-78
2022/02/19 08:44:07;;;;;;;4.03;0.70;;;;;;;-141.50;100.00;63355.56;4910501;29;20115;-78
2022/02/19 08:46:33;;;;;;;5.97;1.10;;;;;;;-141.50;100.00;63355.56;4910369;29;20052;-78
2022/02/19 08:49:01;;;;;;;5.88;0.70;;;;;;;-141.50;100.00;63355.56;4910176;29;20064;-77
2022/02/19 08:51:27;;;;;;;7.40;0.80;;;;;;;-141.50;100.00;63355.56;4908069;29;20150;-79
2022/02/19 08:53:54;;;;;;;4.30;1.02;;;;;;;-141.50;100.00;63355.56;4913377;29;20056;-78
2022/02/19 08:56:21;;;;;;;5.25;0.85;;;;;;;-141.50;100.00;63355.56;4906888;29;20525;-77
2022/02/19 08:58:47;;;;;;;4.22;1.05;;;;;;;-141.50;100.00;63355.56;4908545;29;20056;-79
2022/02/19 09:01:14;;;;;;;5.00;1.10;;;;;;;-141.50;100.00;63355.56;4908581;29;20091;-77
2022/02/19 09:03:41;;;;;;;2.92;0.75;;;;;;;-141.50;100.00;63355.56;4907156;29;20359;-76
2022/02/19 09:06:08;;;;;;;5.15;0.85;;;;;;;-141.50;100.00;63355.56;4908036;29;20059;-77
2022/02/19 09:08:34;;;;;;;8.48;1.00;;;;;;;-141.50;100.00;63355.56;4907232;29;20066;-77
2022/02/19 09:11:01;;;;;;;5.40;1.35;;;;;;;-141.50;100.00;63355.56;4907432;29;20056;-75
2022/02/19 09:13:28;;;;;;;8.50;1.00;;;;;;;-141.50;100.00;63355.56;4910207;29;20064;-78
2022/02/19 09:15:54;;;;;;;6.90;0.82;;;;;;;-141.50;100.00;63355.56;4907699;29;20060;-80
2022/02/19 09:18:21;;;;;;;5.20;1.20;;;;;;;-141.50;100.00;63355.56;4908361;29;20059;-77
2022/02/19 09:20:48;;;;;;;4.22;0.70;;;;;;;-141.50;100.00;63355.56;4906142;29;20064;-76
2022/02/19 09:23:15;;;;;;;6.13;0.85;;;;;;;-141.50;100.00;63355.56;4908056;29;20056;-76
2022/02/19 09:25:41;;;;;;;5.53;1.00;;;;;;;-141.50;100.00;63355.56;4907466;29;20055;-78
2022/02/19 09:28:08;;;;;;;7.68;0.68;;;;;;;-141.50;100.00;63355.56;4907253;29;20135;-78
2022/02/19 09:30:35;;;;;;;6.20;1.00;;;;;;;-141.50;100.00;63355.56;4909566;29;20052;-77
2022/02/19 09:33:02;;;;;;;5.47;0.82;;;;;;;-141.50;100.00;63355.56;4907836;29;20315;-78
2022/02/19 09:35:29;;;;;;;7.70;0.98;;;;;;;-141.50;100.00;63355.56;4911120;29;20107;-78
2022/02/19 09:37:56;;;;;;;4.70;0.88;;;;;;;-141.50;100.00;63355.56;4908825;29;20439;-78
2022/02/19 09:40:23;;;;;;;11.23;1.08;;;;;;;-141.50;100.00;63355.56;4908221;29;20139;-79
2022/02/19 09:42:50;;;;;;;7.68;1.15;;;;;;;-141.50;100.00;63355.56;4909313;29;20523;-77
2022/02/19 09:45:23;;;;;;;6.28;0.95;;;;;;;-141.50;100.00;63355.56;4911492;29;20147;-77
2022/02/19 09:47:53;;;;;;;3.83;0.73;;;;;;;-141.50;100.00;63355.56;4908228;29;20517;-78
2022/02/19 09:50:24;;;;;;;4.32;0.98;;;;;;;-141.50;100.00;63355.56;4908631;29;20402;-78
2022/02/19 09:52:51;;;;;;;7.03;1.08;;;;;;;-141.50;100.00;63355.56;4906845;29;20060;-79
2022/02/19 09:55:18;;;;;;;7.00;1.25;;;;;;;-141.50;100.00;63355.56;4906871;29;20071;-78
2022/02/19 09:57:44;;;;;;;3.80;0.95;;;;;;;-141.50;100.00;63355.56;4909301;29;20054;-76
2022/02/19 10:00:11;;;;;;;5.07;0.70;;;;;;;-141.50;100.00;63355.56;4908463;29;20107;-76
2022/02/19 10:02:38;;;;;;;7.32;1.05;;;;;;;-141.50;100.00;63355.56;4908384;29;20071;-77
2022/02/19 10:05:22;;;;;;;7.25;0.98;;;;;;;-141.50;100.00;63355.56;4909935;29;20052;-77
2022/02/19 10:08:07;;;;;;;5.60;1.10;;;;;;;-141.50;100.00;63355.56;4909025;29;20123;-78
2022/02/19 10:10:37;;;;;;;5.20;1.10;;;;;;;-141.50;100.00;63355.56;4910195;29;20455;-79
2022/02/19 10:13:08;;;;;;;6.90;1.20;;;;;;;-141.50;100.00;63355.56;4909038;29;20063;-81
2022/02/19 10:15:46;;;;;;;6.85;0.95;;;;;;;-141.50;100.00;63355.56;4909951;29;20122;-78
2022/02/19 10:18:27;;;;;;;4.85;0.98;;;;;;;-141.50;100.00;63355.56;4913205;29;20052;-79
2022/02/19 10:21:10;;;;;;;8.13;1.20;;;;;;;-141.50;100.00;63355.56;4911550;29;20075;-78
2022/02/19 10:23:41;;;;;;;6.53;1.17;;;;;;;-141.50;100.00;63355.56;4913384;29;20056;-78
2022/02/19 10:26:09;;;;;;;5.32;1.25;;;;;;;-141.50;100.00;63355.56;4910794;29;20457;-77
2022/02/19 10:28:35;;;;;;;8.38;1.50;;;;;;;-141.50;100.00;63355.56;4911259;29;20061;-76
2022/02/19 10:31:11;;;;;;;8.07;1.13;;;;;;;-141.50;100.00;63355.56;4908654;29;20059;-80
2022/02/19 10:33:41;;;;;;;6.55;1.42;;;;;;;-141.50;100.00;63355.56;4907675;29;20048;-77
2022/02/19 10:36:15;;;;;;;3.55;1.10;;;;;;;-141.50;100.00;63355.56;4907899;29;20063;-77
2022/02/19 10:38:59;;;;;;;8.45;1.20;;;;;;;-141.50;100.00;63355.56;4906134;29;20064;-76
2022/02/19 10:41:33;;;;;;;3.63;1.05;;;;;;;-141.50;100.00;63355.56;4907381;29;20158;-76
2022/02/19 10:44:27;;;;;;;5.27;0.80;;;;;;;-141.50;100.00;63355.56;4907500;29;20552;-78
2022/02/19 10:47:16;;;;;;;5.72;0.90;;;;;;;-141.50;100.00;63355.56;4908571;29;20331;-78
2022/02/19 10:50:28;;;;;;;8.43;0.90;;;;;;;-141.50;100.00;63355.56;4906920;29;20062;-76
2022/02/19 10:53:08;;;;;;;5.13;1.13;;;;;;;-141.50;100.00;63355.56;4894445;29;20052;-76
2022/02/19 10:55:35;;;;;;;6.68;1.10;;;;;;;-141.50;100.00;63355.56;4908769;29;20070;-77
2022/02/19 10:58:08;;;;;;;4.25;1.15;;;;;;;-141.50;100.00;63355.56;4909520;29;20113;-78
2022/02/19 11:00:36;;;;;;;9.80;1.13;;;;;;;-141.50;100.00;63355.56;4906407;29;20142;-77
2022/02/19 11:03:05;;;;;;;7.72;1.48;;;;;;;-141.50;100.00;63355.56;4908430;29;20052;-76
2022/02/19 11:05:32;;;;;;;4.80;1.00;;;;;;;-141.50;100.00;63355.56;4905137;29;20088;-77
2022/02/19 11:08:00;;;;;;;5.60;1.13;;;;;;;-141.50;100.00;63355.56;4907889;29;20063;-77
2022/02/19 11:10:28;;;;;;;6.18;1.10;;;;;;;-141.50;100.00;63355.56;4906111;29;20063;-77
2022/02/19 11:12:56;;;;;;;6.40;1.08;;;;;;;-141.50;100.00;63355.56;4906039;29;20055;-77
2022/02/19 11:15:28;;;;;;;5.03;1.13;;;;;;;-141.50;100.00;63355.56;4907591;29;20060;-79
2022/02/19 11:17:55;;;;;;;5.10;1.08;;;;;;;-141.50;100.00;63355.56;4908781;29;20052;-77